sensor_id;sensor_type;location;lat;lon;timestamp;temperature;humidity
11454;DHT22;5783;55.174;61.310;2023-05-10T00:01:31;20.70;30.50
11454;DHT22;5783;55.174;61.310;2023-05-10T00:04:00;20.70;30.50
11454;DHT22;5783;55.174;61.310;2023-05-10T00:06:29;20.70;30.50
11454;DHT22;5783;55.174;61.310;2023-05-10T00:08:59;20.80;30.70
11454;DHT22;5783;55.174;61.310;2023-05-10T00:11:28;20.70;30.50
11454;DHT22;5783;55.174;61.310;2023-05-10T00:13:57;20.70;30.80
11454;DHT22;5783;55.174;61.310;2023-05-10T00:16:26;20.70;30.90
11454;DHT22;5783;55.174;61.310;2023-05-10T00:18:55;20.70;31.10
11454;DHT22;5783;55.174;61.310;2023-05-10T00:21:24;20.70;31.00
11454;DHT22;5783;55.174;61.310;2023-05-10T00:23:55;20.70;31.00
11454;DHT22;5783;55.174;61.310;2023-05-10T00:26:24;20.70;30.90
11454;DHT22;5783;55.174;61.310;2023-05-10T00:28:53;20.70;30.80
11454;DHT22;5783;55.174;61.310;2023-05-10T00:31:23;20.70;30.90
11454;DHT22;5783;55.174;61.310;2023-05-10T00:33:52;20.70;30.90
11454;DHT22;5783;55.174;61.310;2023-05-10T00:36:22;20.70;30.90
11454;DHT22;5783;55.174;61.310;2023-05-10T00:38:51;20.70;30.90
11454;DHT22;5783;55.174;61.310;2023-05-10T00:41:20;20.70;31.00
11454;DHT22;5783;55.174;61.310;2023-05-10T00:43:49;20.70;31.00
11454;DHT22;5783;55.174;61.310;2023-05-10T00:46:18;20.70;31.10
11454;DHT22;5783;55.174;61.310;2023-05-10T00:48:48;20.70;31.20
11454;DHT22;5783;55.174;61.310;2023-05-10T00:51:17;20.70;31.10
11454;DHT22;5783;55.174;61.310;2023-05-10T00:53:47;20.70;31.10
11454;DHT22;5783;55.174;61.310;2023-05-10T00:56:18;20.70;31.30
11454;DHT22;5783;55.174;61.310;2023-05-10T00:58:49;20.70;31.20
11454;DHT22;5783;55.174;61.310;2023-05-10T01:01:19;20.70;31.30
11454;DHT22;5783;55.174;61.310;2023-05-10T01:03:49;20.70;30.90
11454;DHT22;5783;55.174;61.310;2023-05-10T01:06:19;20.70;30.90
11454;DHT22;5783;55.174;61.310;2023-05-10T01:08:48;20.70;30.90
11454;DHT22;5783;55.174;61.310;2023-05-10T01:11:17;20.70;30.70
11454;DHT22;5783;55.174;61.310;2023-05-10T01:13:50;20.70;30.70
11454;DHT22;5783;55.174;61.310;2023-05-10T01:16:18;20.70;30.50
11454;DHT22;5783;55.174;61.310;2023-05-10T01:18:47;20.70;30.50
11454;DHT22;5783;55.174;61.310;2023-05-10T01:33:52;20.60;30.40
11454;DHT22;5783;55.174;61.310;2023-05-10T01:48:41;20.60;30.50
11454;DHT22;5783;55.174;61.310;2023-05-10T01:54:03;20.60;30.40
11454;DHT22;5783;55.174;61.310;2023-05-10T01:56:33;20.70;30.50
11454;DHT22;5783;55.174;61.310;2023-05-10T01:59:06;20.70;30.30
11454;DHT22;5783;55.174;61.310;2023-05-10T02:01:37;20.70;30.50
11454;DHT22;5783;55.174;61.310;2023-05-10T02:04:08;20.70;30.40
11454;DHT22;5783;55.174;61.310;2023-05-10T02:06:38;20.70;30.30
11454;DHT22;5783;55.174;61.310;2023-05-10T02:09:09;20.70;30.20
11454;DHT22;5783;55.174;61.310;2023-05-10T02:11:41;20.70;30.40
11454;DHT22;5783;55.174;61.310;2023-05-10T02:14:12;20.80;30.60
11454;DHT22;5783;55.174;61.310;2023-05-10T02:16:41;20.80;30.20
11454;DHT22;5783;55.174;61.310;2023-05-10T02:19:12;20.80;30.20
11454;DHT22;5783;55.174;61.310;2023-05-10T02:21:44;20.80;30.40
11454;DHT22;5783;55.174;61.310;2023-05-10T02:24:15;20.80;30.30
11454;DHT22;5783;55.174;61.310;2023-05-10T02:26:45;20.80;30.30
11454;DHT22;5783;55.174;61.310;2023-05-10T02:29:17;20.80;30.10
11454;DHT22;5783;55.174;61.310;2023-05-10T02:32:21;20.80;30.10
11454;DHT22;5783;55.174;61.310;2023-05-10T02:34:23;20.80;30.10
11454;DHT22;5783;55.174;61.310;2023-05-10T02:36:53;20.80;30.20
11454;DHT22;5783;55.174;61.310;2023-05-10T02:39:23;20.80;30.10
11454;DHT22;5783;55.174;61.310;2023-05-10T02:41:55;20.80;30.20
11454;DHT22;5783;55.174;61.310;2023-05-10T02:44:26;20.80;30.00
11454;DHT22;5783;55.174;61.310;2023-05-10T02:46:58;20.80;30.20
11454;DHT22;5783;55.174;61.310;2023-05-10T02:49:27;20.80;30.10
11454;DHT22;5783;55.174;61.310;2023-05-10T02:51:59;20.80;30.20
11454;DHT22;5783;55.174;61.310;2023-05-10T02:54:50;20.80;30.40
11454;DHT22;5783;55.174;61.310;2023-05-10T02:57:22;20.80;30.20
11454;DHT22;5783;55.174;61.310;2023-05-10T02:59:51;20.80;30.00
11454;DHT22;5783;55.174;61.310;2023-05-10T03:02:21;20.80;30.30
11454;DHT22;5783;55.174;61.310;2023-05-10T03:04:50;20.80;30.60
11454;DHT22;5783;55.174;61.310;2023-05-10T03:07:19;20.80;30.20
11454;DHT22;5783;55.174;61.310;2023-05-10T03:09:49;20.80;30.00
11454;DHT22;5783;55.174;61.310;2023-05-10T03:15:32;20.90;30.30
11454;DHT22;5783;55.174;61.310;2023-05-10T03:20:51;20.90;30.30
11454;DHT22;5783;55.174;61.310;2023-05-10T03:26:15;20.90;30.30
11454;DHT22;5783;55.174;61.310;2023-05-10T03:28:44;20.90;30.20
11454;DHT22;5783;55.174;61.310;2023-05-10T03:31:15;20.90;30.60
11454;DHT22;5783;55.174;61.310;2023-05-10T03:34:04;20.90;30.40
11454;DHT22;5783;55.174;61.310;2023-05-10T03:36:33;20.90;30.40
11454;DHT22;5783;55.174;61.310;2023-05-10T03:39:02;20.90;30.30
11454;DHT22;5783;55.174;61.310;2023-05-10T03:41:31;20.90;30.30
11454;DHT22;5783;55.174;61.310;2023-05-10T03:44:00;21.00;30.30
11454;DHT22;5783;55.174;61.310;2023-05-10T03:46:29;20.90;30.20
11454;DHT22;5783;55.174;61.310;2023-05-10T03:48:58;21.00;30.40
11454;DHT22;5783;55.174;61.310;2023-05-10T03:51:28;21.00;30.30
11454;DHT22;5783;55.174;61.310;2023-05-10T03:53:57;21.00;30.20
11454;DHT22;5783;55.174;61.310;2023-05-10T03:56:27;21.00;30.20
11454;DHT22;5783;55.174;61.310;2023-05-10T03:58:56;21.00;30.30
11454;DHT22;5783;55.174;61.310;2023-05-10T04:01:25;21.00;30.30
11454;DHT22;5783;55.174;61.310;2023-05-10T04:03:54;21.00;30.40
11454;DHT22;5783;55.174;61.310;2023-05-10T04:06:24;21.00;30.70
11454;DHT22;5783;55.174;61.310;2023-05-10T04:08:53;21.00;30.50
11454;DHT22;5783;55.174;61.310;2023-05-10T04:11:22;21.10;30.70
11454;DHT22;5783;55.174;61.310;2023-05-10T04:13:51;21.10;30.50
11454;DHT22;5783;55.174;61.310;2023-05-10T04:16:20;21.10;30.30
11454;DHT22;5783;55.174;61.310;2023-05-10T04:18:49;21.10;30.60
11454;DHT22;5783;55.174;61.310;2023-05-10T04:21:18;21.10;30.50
11454;DHT22;5783;55.174;61.310;2023-05-10T04:23:47;21.10;30.40
11454;DHT22;5783;55.174;61.310;2023-05-10T04:26:16;21.20;30.50
11454;DHT22;5783;55.174;61.310;2023-05-10T04:28:46;21.20;30.70
11454;DHT22;5783;55.174;61.310;2023-05-10T04:31:16;21.20;30.50
11454;DHT22;5783;55.174;61.310;2023-05-10T04:33:45;21.20;30.60
11454;DHT22;5783;55.174;61.310;2023-05-10T04:36:14;21.20;30.50
11454;DHT22;5783;55.174;61.310;2023-05-10T04:38:43;21.20;30.60
11454;DHT22;5783;55.174;61.310;2023-05-10T04:41:12;21.20;30.80
11454;DHT22;5783;55.174;61.310;2023-05-10T04:43:41;21.20;30.70
11454;DHT22;5783;55.174;61.310;2023-05-10T04:46:10;21.20;30.80
11454;DHT22;5783;55.174;61.310;2023-05-10T04:48:39;21.30;31.20
11454;DHT22;5783;55.174;61.310;2023-05-10T04:51:08;21.30;31.30
11454;DHT22;5783;55.174;61.310;2023-05-10T04:53:38;21.30;30.00
11454;DHT22;5783;55.174;61.310;2023-05-10T04:56:07;21.30;30.70
11454;DHT22;5783;55.174;61.310;2023-05-10T04:58:36;21.20;30.40
11454;DHT22;5783;55.174;61.310;2023-05-10T05:01:06;21.30;30.10
11454;DHT22;5783;55.174;61.310;2023-05-10T05:03:36;21.30;30.40
11454;DHT22;5783;55.174;61.310;2023-05-10T05:06:05;21.30;29.70
11454;DHT22;5783;55.174;61.310;2023-05-10T05:08:35;21.30;29.80
11454;DHT22;5783;55.174;61.310;2023-05-10T05:11:04;21.40;29.70
11454;DHT22;5783;55.174;61.310;2023-05-10T05:13:33;21.40;27.70
11454;DHT22;5783;55.174;61.310;2023-05-10T05:16:03;21.50;26.40
11454;DHT22;5783;55.174;61.310;2023-05-10T05:18:32;21.60;26.30
11454;DHT22;5783;55.174;61.310;2023-05-10T05:21:01;21.60;24.90
11454;DHT22;5783;55.174;61.310;2023-05-10T05:23:30;21.70;24.10
11454;DHT22;5783;55.174;61.310;2023-05-10T05:25:59;21.70;24.80
11454;DHT22;5783;55.174;61.310;2023-05-10T05:28:28;21.80;23.50
11454;DHT22;5783;55.174;61.310;2023-05-10T05:30:59;21.80;23.50
11454;DHT22;5783;55.174;61.310;2023-05-10T05:33:28;21.80;22.60
11454;DHT22;5783;55.174;61.310;2023-05-10T05:35:57;21.80;22.70
11454;DHT22;5783;55.174;61.310;2023-05-10T05:38:27;21.80;23.20
11454;DHT22;5783;55.174;61.310;2023-05-10T05:40:57;21.80;23.30
11454;DHT22;5783;55.174;61.310;2023-05-10T05:43:26;21.80;23.50
11454;DHT22;5783;55.174;61.310;2023-05-10T05:45:55;21.80;23.10
11454;DHT22;5783;55.174;61.310;2023-05-10T05:48:44;21.80;22.60
11454;DHT22;5783;55.174;61.310;2023-05-10T05:51:13;21.80;23.30
11454;DHT22;5783;55.174;61.310;2023-05-10T05:53:42;21.80;22.60
11454;DHT22;5783;55.174;61.310;2023-05-10T05:56:12;21.80;22.30
11454;DHT22;5783;55.174;61.310;2023-05-10T05:58:41;21.80;22.40
11454;DHT22;5783;55.174;61.310;2023-05-10T06:01:11;21.70;22.50
11454;DHT22;5783;55.174;61.310;2023-05-10T06:03:40;21.70;22.30
11454;DHT22;5783;55.174;61.310;2023-05-10T06:06:09;21.70;22.50
11454;DHT22;5783;55.174;61.310;2023-05-10T06:08:39;21.60;22.20
11454;DHT22;5783;55.174;61.310;2023-05-10T06:11:08;21.70;22.40
11454;DHT22;5783;55.174;61.310;2023-05-10T06:13:37;21.70;22.30
11454;DHT22;5783;55.174;61.310;2023-05-10T06:16:06;21.70;22.30
11454;DHT22;5783;55.174;61.310;2023-05-10T06:18:35;21.70;21.90
11454;DHT22;5783;55.174;61.310;2023-05-10T06:21:04;21.70;22.00
11454;DHT22;5783;55.174;61.310;2023-05-10T06:23:34;21.80;22.70
11454;DHT22;5783;55.174;61.310;2023-05-10T06:26:03;21.80;22.00
11454;DHT22;5783;55.174;61.310;2023-05-10T06:28:32;21.80;22.60
11454;DHT22;5783;55.174;61.310;2023-05-10T06:31:01;21.80;21.60
11454;DHT22;5783;55.174;61.310;2023-05-10T06:33:31;21.80;21.50
11454;DHT22;5783;55.174;61.310;2023-05-10T06:38:32;21.80;21.30
11454;DHT22;5783;55.174;61.310;2023-05-10T06:41:01;21.80;21.20
11454;DHT22;5783;55.174;61.310;2023-05-10T06:43:31;21.90;20.90
11454;DHT22;5783;55.174;61.310;2023-05-10T06:46:00;21.90;21.00
11454;DHT22;5783;55.174;61.310;2023-05-10T06:48:29;21.90;21.10
11454;DHT22;5783;55.174;61.310;2023-05-10T06:50:59;21.80;20.70
11454;DHT22;5783;55.174;61.310;2023-05-10T06:53:28;21.70;20.70
11454;DHT22;5783;55.174;61.310;2023-05-10T06:55:57;21.70;20.70
11454;DHT22;5783;55.174;61.310;2023-05-10T06:58:26;21.60;20.60
11454;DHT22;5783;55.174;61.310;2023-05-10T07:01:01;21.60;20.30
11454;DHT22;5783;55.174;61.310;2023-05-10T07:03:27;21.70;20.50
11454;DHT22;5783;55.174;61.310;2023-05-10T07:08:46;21.70;20.70
11454;DHT22;5783;55.174;61.310;2023-05-10T07:11:15;21.70;20.70
11454;DHT22;5783;55.174;61.310;2023-05-10T07:13:45;21.70;20.80
11454;DHT22;5783;55.174;61.310;2023-05-10T07:16:14;21.60;20.50
11454;DHT22;5783;55.174;61.310;2023-05-10T07:18:43;21.70;20.50
11454;DHT22;5783;55.174;61.310;2023-05-10T07:21:12;21.70;20.20
11454;DHT22;5783;55.174;61.310;2023-05-10T07:23:41;21.70;20.40
11454;DHT22;5783;55.174;61.310;2023-05-10T07:26:10;21.70;20.40
11454;DHT22;5783;55.174;61.310;2023-05-10T07:28:39;21.70;20.30
11454;DHT22;5783;55.174;61.310;2023-05-10T07:31:08;21.70;20.00
11454;DHT22;5783;55.174;61.310;2023-05-10T07:33:37;21.70;19.80
11454;DHT22;5783;55.174;61.310;2023-05-10T07:36:07;21.70;19.60
11454;DHT22;5783;55.174;61.310;2023-05-10T07:38:36;21.70;19.50
11454;DHT22;5783;55.174;61.310;2023-05-10T07:41:05;21.60;19.50
11454;DHT22;5783;55.174;61.310;2023-05-10T07:43:34;21.70;20.10
11454;DHT22;5783;55.174;61.310;2023-05-10T07:46:03;21.70;20.20
11454;DHT22;5783;55.174;61.310;2023-05-10T07:48:32;21.60;20.10
11454;DHT22;5783;55.174;61.310;2023-05-10T07:51:01;21.60;20.80
11454;DHT22;5783;55.174;61.310;2023-05-10T07:53:30;21.70;20.30
11454;DHT22;5783;55.174;61.310;2023-05-10T07:56:19;21.70;20.00
11454;DHT22;5783;55.174;61.310;2023-05-10T07:58:30;21.70;19.90
11454;DHT22;5783;55.174;61.310;2023-05-10T08:00:59;21.70;20.10
11454;DHT22;5783;55.174;61.310;2023-05-10T08:03:28;21.70;20.20
11454;DHT22;5783;55.174;61.310;2023-05-10T08:05:57;21.70;20.40
11454;DHT22;5783;55.174;61.310;2023-05-10T08:08:26;21.70;20.40
11454;DHT22;5783;55.174;61.310;2023-05-10T08:10:55;21.70;20.30
11454;DHT22;5783;55.174;61.310;2023-05-10T08:13:24;21.70;20.20
11454;DHT22;5783;55.174;61.310;2023-05-10T08:15:53;21.70;20.10
11454;DHT22;5783;55.174;61.310;2023-05-10T08:18:23;21.60;20.00
11454;DHT22;5783;55.174;61.310;2023-05-10T08:20:52;21.60;20.00
11454;DHT22;5783;55.174;61.310;2023-05-10T08:23:21;21.60;20.20
11454;DHT22;5783;55.174;61.310;2023-05-10T08:25:50;21.60;20.40
11454;DHT22;5783;55.174;61.310;2023-05-10T08:28:19;21.70;20.60
11454;DHT22;5783;55.174;61.310;2023-05-10T08:30:49;21.70;20.60
11454;DHT22;5783;55.174;61.310;2023-05-10T08:33:19;21.70;20.40
11454;DHT22;5783;55.174;61.310;2023-05-10T08:35:48;21.80;20.50
11454;DHT22;5783;55.174;61.310;2023-05-10T08:38:18;21.80;20.50
11454;DHT22;5783;55.174;61.310;2023-05-10T08:40:49;21.70;20.40
11454;DHT22;5783;55.174;61.310;2023-05-10T08:43:19;21.70;20.50
11454;DHT22;5783;55.174;61.310;2023-05-10T08:45:50;21.70;20.40
11454;DHT22;5783;55.174;61.310;2023-05-10T08:48:19;21.70;20.80
11454;DHT22;5783;55.174;61.310;2023-05-10T08:53:24;21.80;20.80
11454;DHT22;5783;55.174;61.310;2023-05-10T08:55:53;21.80;20.70
11454;DHT22;5783;55.174;61.310;2023-05-10T08:58:23;21.80;20.60
11454;DHT22;5783;55.174;61.310;2023-05-10T09:00:52;21.80;20.30
11454;DHT22;5783;55.174;61.310;2023-05-10T09:03:21;21.90;20.40
11454;DHT22;5783;55.174;61.310;2023-05-10T09:05:50;21.90;20.40
11454;DHT22;5783;55.174;61.310;2023-05-10T09:08:20;21.90;20.50
11454;DHT22;5783;55.174;61.310;2023-05-10T09:10:51;21.90;20.40
11454;DHT22;5783;55.174;61.310;2023-05-10T09:13:22;21.90;20.20
11454;DHT22;5783;55.174;61.310;2023-05-10T09:15:53;21.90;20.00
11454;DHT22;5783;55.174;61.310;2023-05-10T09:18:22;21.90;20.10
11454;DHT22;5783;55.174;61.310;2023-05-10T09:20:51;21.90;20.80
11454;DHT22;5783;55.174;61.310;2023-05-10T09:23:20;21.90;20.60
11454;DHT22;5783;55.174;61.310;2023-05-10T09:26:24;21.80;20.40
11454;DHT22;5783;55.174;61.310;2023-05-10T09:28:24;21.80;20.30
11454;DHT22;5783;55.174;61.310;2023-05-10T09:30:53;21.70;20.40
11454;DHT22;5783;55.174;61.310;2023-05-10T09:33:23;21.70;20.70
11454;DHT22;5783;55.174;61.310;2023-05-10T09:35:52;21.70;20.60
11454;DHT22;5783;55.174;61.310;2023-05-10T09:38:22;21.70;20.40
11454;DHT22;5783;55.174;61.310;2023-05-10T09:40:52;21.70;20.80
11454;DHT22;5783;55.174;61.310;2023-05-10T09:43:21;21.80;21.10
11454;DHT22;5783;55.174;61.310;2023-05-10T09:45:50;21.80;21.40
11454;DHT22;5783;55.174;61.310;2023-05-10T09:48:23;21.80;20.80
11454;DHT22;5783;55.174;61.310;2023-05-10T09:53:42;21.90;20.80
11454;DHT22;5783;55.174;61.310;2023-05-10T09:56:11;21.90;20.90
11454;DHT22;5783;55.174;61.310;2023-05-10T09:58:40;22.00;20.70
11454;DHT22;5783;55.174;61.310;2023-05-10T10:01:29;22.00;20.60
11454;DHT22;5783;55.174;61.310;2023-05-10T10:03:58;22.00;20.70
11454;DHT22;5783;55.174;61.310;2023-05-10T10:06:27;22.00;20.40
11454;DHT22;5783;55.174;61.310;2023-05-10T10:08:57;22.10;20.60
11454;DHT22;5783;55.174;61.310;2023-05-10T10:11:26;22.10;20.40
11454;DHT22;5783;55.174;61.310;2023-05-10T10:13:55;22.10;20.30
11454;DHT22;5783;55.174;61.310;2023-05-10T10:18:56;22.00;20.10
11454;DHT22;5783;55.174;61.310;2023-05-10T10:24:16;22.10;19.80
11454;DHT22;5783;55.174;61.310;2023-05-10T10:26:46;22.10;20.00
11454;DHT22;5783;55.174;61.310;2023-05-10T10:35:33;22.00;20.10
11454;DHT22;5783;55.174;61.310;2023-05-10T10:38:03;22.00;20.20
11454;DHT22;5783;55.174;61.310;2023-05-10T10:40:33;22.00;20.30
11454;DHT22;5783;55.174;61.310;2023-05-10T10:43:23;22.00;20.10
11454;DHT22;5783;55.174;61.310;2023-05-10T10:49:20;22.00;20.20
11454;DHT22;5783;55.174;61.310;2023-05-10T10:55:19;22.00;20.10
11454;DHT22;5783;55.174;61.310;2023-05-10T11:00:40;22.00;20.00
11454;DHT22;5783;55.174;61.310;2023-05-10T11:03:12;22.00;19.80
11454;DHT22;5783;55.174;61.310;2023-05-10T11:05:45;22.00;19.70
11454;DHT22;5783;55.174;61.310;2023-05-10T11:08:39;22.00;19.80
11454;DHT22;5783;55.174;61.310;2023-05-10T11:11:06;22.10;20.00
11454;DHT22;5783;55.174;61.310;2023-05-10T11:16:26;22.10;20.40
11454;DHT22;5783;55.174;61.310;2023-05-10T11:19:15;22.10;20.20
11454;DHT22;5783;55.174;61.310;2023-05-10T11:24:35;22.10;20.20
11454;DHT22;5783;55.174;61.310;2023-05-10T11:27:05;22.10;20.20
11454;DHT22;5783;55.174;61.310;2023-05-10T11:29:34;22.10;20.00
11454;DHT22;5783;55.174;61.310;2023-05-10T11:32:04;22.20;19.90
11454;DHT22;5783;55.174;61.310;2023-05-10T11:34:34;22.20;19.70
11454;DHT22;5783;55.174;61.310;2023-05-10T11:37:03;22.10;19.50
11454;DHT22;5783;55.174;61.310;2023-05-10T11:39:32;22.10;19.50
11454;DHT22;5783;55.174;61.310;2023-05-10T11:42:01;22.10;19.70
11454;DHT22;5783;55.174;61.310;2023-05-10T11:44:31;22.10;19.50
11454;DHT22;5783;55.174;61.310;2023-05-10T11:47:01;22.10;19.50
11454;DHT22;5783;55.174;61.310;2023-05-10T11:49:30;22.10;19.60
11454;DHT22;5783;55.174;61.310;2023-05-10T11:52:19;22.10;19.70
11454;DHT22;5783;55.174;61.310;2023-05-10T11:55:08;22.10;19.70
11454;DHT22;5783;55.174;61.310;2023-05-10T11:57:37;22.00;19.50
11454;DHT22;5783;55.174;61.310;2023-05-10T12:00:08;22.10;19.90
11454;DHT22;5783;55.174;61.310;2023-05-10T12:02:37;22.00;20.10
11454;DHT22;5783;55.174;61.310;2023-05-10T12:05:07;22.00;19.90
11454;DHT22;5783;55.174;61.310;2023-05-10T12:07:36;22.10;19.80
11454;DHT22;5783;55.174;61.310;2023-05-10T12:10:07;22.10;20.10
11454;DHT22;5783;55.174;61.310;2023-05-10T12:12:39;22.10;20.00
11454;DHT22;5783;55.174;61.310;2023-05-10T12:15:28;22.10;20.30
11454;DHT22;5783;55.174;61.310;2023-05-10T12:17:57;22.20;20.60
11454;DHT22;5783;55.174;61.310;2023-05-10T12:20:28;22.20;20.30
11454;DHT22;5783;55.174;61.310;2023-05-10T12:22:58;22.20;20.60
11454;DHT22;5783;55.174;61.310;2023-05-10T12:25:49;22.20;20.00
11454;DHT22;5783;55.174;61.310;2023-05-10T12:28:20;22.20;20.10
11454;DHT22;5783;55.174;61.310;2023-05-10T12:30:49;22.20;20.20
11454;DHT22;5783;55.174;61.310;2023-05-10T12:33:20;22.20;20.30
11454;DHT22;5783;55.174;61.310;2023-05-10T12:36:09;22.30;20.10
11454;DHT22;5783;55.174;61.310;2023-05-10T12:41:46;22.30;20.10
11454;DHT22;5783;55.174;61.310;2023-05-10T12:44:15;22.30;20.60
11454;DHT22;5783;55.174;61.310;2023-05-10T12:46:44;22.30;20.50
11454;DHT22;5783;55.174;61.310;2023-05-10T12:49:14;22.30;20.10
11454;DHT22;5783;55.174;61.310;2023-05-10T12:51:44;22.30;19.80
11454;DHT22;5783;55.174;61.310;2023-05-10T12:54:13;22.30;19.70
11454;DHT22;5783;55.174;61.310;2023-05-10T12:56:43;22.20;19.70
11454;DHT22;5783;55.174;61.310;2023-05-10T12:59:12;22.20;20.10
11454;DHT22;5783;55.174;61.310;2023-05-10T13:01:41;22.20;20.10
11454;DHT22;5783;55.174;61.310;2023-05-10T13:04:13;22.20;20.20
11454;DHT22;5783;55.174;61.310;2023-05-10T13:06:42;22.20;20.10
11454;DHT22;5783;55.174;61.310;2023-05-10T13:09:11;22.20;20.00
11454;DHT22;5783;55.174;61.310;2023-05-10T13:11:40;22.20;20.00
11454;DHT22;5783;55.174;61.310;2023-05-10T13:14:09;22.20;20.00
11454;DHT22;5783;55.174;61.310;2023-05-10T13:16:39;22.20;20.30
11454;DHT22;5783;55.174;61.310;2023-05-10T13:19:08;22.20;20.30
11454;DHT22;5783;55.174;61.310;2023-05-10T13:21:38;22.20;20.00
11454;DHT22;5783;55.174;61.310;2023-05-10T13:24:08;22.10;20.00
11454;DHT22;5783;55.174;61.310;2023-05-10T13:26:40;22.10;19.90
11454;DHT22;5783;55.174;61.310;2023-05-10T13:29:09;22.10;20.10
11454;DHT22;5783;55.174;61.310;2023-05-10T13:32:09;22.10;20.10
11454;DHT22;5783;55.174;61.310;2023-05-10T13:34:13;22.10;20.10
11454;DHT22;5783;55.174;61.310;2023-05-10T13:36:42;22.10;20.10
11454;DHT22;5783;55.174;61.310;2023-05-10T13:39:11;22.10;20.20
11454;DHT22;5783;55.174;61.310;2023-05-10T13:41:40;22.10;20.30
11454;DHT22;5783;55.174;61.310;2023-05-10T13:44:11;22.10;20.70
11454;DHT22;5783;55.174;61.310;2023-05-10T13:46:41;22.10;21.90
11454;DHT22;5783;55.174;61.310;2023-05-10T13:49:10;22.10;22.60
11454;DHT22;5783;55.174;61.310;2023-05-10T13:51:40;22.10;23.20
11454;DHT22;5783;55.174;61.310;2023-05-10T13:54:09;22.10;23.50
11454;DHT22;5783;55.174;61.310;2023-05-10T13:56:38;22.10;23.60
11454;DHT22;5783;55.174;61.310;2023-05-10T13:59:08;22.00;23.60
11454;DHT22;5783;55.174;61.310;2023-05-10T14:01:37;22.00;23.80
11454;DHT22;5783;55.174;61.310;2023-05-10T14:04:06;22.00;24.10
11454;DHT22;5783;55.174;61.310;2023-05-10T14:06:37;22.00;24.20
11454;DHT22;5783;55.174;61.310;2023-05-10T14:09:06;22.00;24.40
11454;DHT22;5783;55.174;61.310;2023-05-10T14:11:35;22.00;24.60
11454;DHT22;5783;55.174;61.310;2023-05-10T14:14:06;22.00;24.60
11454;DHT22;5783;55.174;61.310;2023-05-10T14:16:35;22.00;24.60
11454;DHT22;5783;55.174;61.310;2023-05-10T14:19:04;22.00;24.90
11454;DHT22;5783;55.174;61.310;2023-05-10T14:21:33;22.00;24.90
11454;DHT22;5783;55.174;61.310;2023-05-10T14:24:02;21.90;25.00
11454;DHT22;5783;55.174;61.310;2023-05-10T14:26:33;21.90;25.10
11454;DHT22;5783;55.174;61.310;2023-05-10T14:29:02;21.80;25.10
11454;DHT22;5783;55.174;61.310;2023-05-10T14:31:31;21.80;25.20
11454;DHT22;5783;55.174;61.310;2023-05-10T14:34:00;21.80;25.30
11454;DHT22;5783;55.174;61.310;2023-05-10T14:36:29;21.70;25.50
11454;DHT22;5783;55.174;61.310;2023-05-10T14:38:58;21.70;25.60
11454;DHT22;5783;55.174;61.310;2023-05-10T14:41:27;21.60;25.60
11454;DHT22;5783;55.174;61.310;2023-05-10T14:43:57;21.60;25.70
11454;DHT22;5783;55.174;61.310;2023-05-10T14:46:26;21.60;25.70
11454;DHT22;5783;55.174;61.310;2023-05-10T14:48:56;21.60;25.80
11454;DHT22;5783;55.174;61.310;2023-05-10T14:51:25;21.60;25.80
11454;DHT22;5783;55.174;61.310;2023-05-10T14:54:14;21.60;25.90
11454;DHT22;5783;55.174;61.310;2023-05-10T14:56:43;21.60;26.00
11454;DHT22;5783;55.174;61.310;2023-05-10T14:59:12;21.50;26.10
11454;DHT22;5783;55.174;61.310;2023-05-10T15:01:41;21.50;26.20
11454;DHT22;5783;55.174;61.310;2023-05-10T15:04:10;21.60;26.20
11454;DHT22;5783;55.174;61.310;2023-05-10T15:06:40;21.70;26.20
11454;DHT22;5783;55.174;61.310;2023-05-10T15:09:09;21.80;26.30
11454;DHT22;5783;55.174;61.310;2023-05-10T15:11:38;21.80;26.30
11454;DHT22;5783;55.174;61.310;2023-05-10T15:14:07;21.90;26.40
11454;DHT22;5783;55.174;61.310;2023-05-10T15:16:36;21.90;26.60
11454;DHT22;5783;55.174;61.310;2023-05-10T15:19:05;21.90;26.60
11454;DHT22;5783;55.174;61.310;2023-05-10T15:21:34;21.90;26.70
11454;DHT22;5783;55.174;61.310;2023-05-10T15:24:06;21.90;26.70
11454;DHT22;5783;55.174;61.310;2023-05-10T15:26:35;21.90;26.80
11454;DHT22;5783;55.174;61.310;2023-05-10T15:29:04;21.90;26.90
11454;DHT22;5783;55.174;61.310;2023-05-10T15:31:33;21.90;27.00
11454;DHT22;5783;55.174;61.310;2023-05-10T15:34:02;21.90;27.00
11454;DHT22;5783;55.174;61.310;2023-05-10T15:36:32;21.90;27.10
11454;DHT22;5783;55.174;61.310;2023-05-10T15:39:02;21.90;27.10
11454;DHT22;5783;55.174;61.310;2023-05-10T15:41:31;21.90;27.20
11454;DHT22;5783;55.174;61.310;2023-05-10T15:44:00;21.80;27.20
11454;DHT22;5783;55.174;61.310;2023-05-10T15:46:29;21.80;27.30
11454;DHT22;5783;55.174;61.310;2023-05-10T15:48:59;21.80;27.30
11454;DHT22;5783;55.174;61.310;2023-05-10T15:51:28;21.80;27.30
11454;DHT22;5783;55.174;61.310;2023-05-10T15:53:59;21.80;27.40
11454;DHT22;5783;55.174;61.310;2023-05-10T15:56:47;21.80;27.60
11454;DHT22;5783;55.174;61.310;2023-05-10T15:59:16;21.80;27.60
11454;DHT22;5783;55.174;61.310;2023-05-10T16:01:45;21.70;27.70
11454;DHT22;5783;55.174;61.310;2023-05-10T16:04:15;21.70;27.80
11454;DHT22;5783;55.174;61.310;2023-05-10T16:06:44;21.70;27.90
11454;DHT22;5783;55.174;61.310;2023-05-10T16:11:44;21.70;28.10
11454;DHT22;5783;55.174;61.310;2023-05-10T16:14:14;21.70;28.10
11454;DHT22;5783;55.174;61.310;2023-05-10T16:16:43;21.70;28.20
11454;DHT22;5783;55.174;61.310;2023-05-10T16:19:13;21.70;28.20
11454;DHT22;5783;55.174;61.310;2023-05-10T16:21:42;21.70;28.20
11454;DHT22;5783;55.174;61.310;2023-05-10T16:24:11;21.70;28.30
11454;DHT22;5783;55.174;61.310;2023-05-10T16:26:40;21.70;28.30
11454;DHT22;5783;55.174;61.310;2023-05-10T16:29:09;21.70;28.30
11454;DHT22;5783;55.174;61.310;2023-05-10T16:31:38;21.70;28.40
11454;DHT22;5783;55.174;61.310;2023-05-10T16:34:07;21.70;28.50
11454;DHT22;5783;55.174;61.310;2023-05-10T16:36:37;21.60;28.40
11454;DHT22;5783;55.174;61.310;2023-05-10T16:39:06;21.60;28.40
11454;DHT22;5783;55.174;61.310;2023-05-10T16:41:35;21.60;28.40
11454;DHT22;5783;55.174;61.310;2023-05-10T16:44:04;21.60;28.40
11454;DHT22;5783;55.174;61.310;2023-05-10T16:46:33;21.60;28.50
11454;DHT22;5783;55.174;61.310;2023-05-10T16:49:02;21.60;28.60
11454;DHT22;5783;55.174;61.310;2023-05-10T16:51:31;21.60;28.60
11454;DHT22;5783;55.174;61.310;2023-05-10T16:54:01;21.60;28.70
11454;DHT22;5783;55.174;61.310;2023-05-10T16:56:30;21.50;28.70
11454;DHT22;5783;55.174;61.310;2023-05-10T16:58:59;21.50;28.80
11454;DHT22;5783;55.174;61.310;2023-05-10T17:01:28;21.50;28.90
11454;DHT22;5783;55.174;61.310;2023-05-10T17:03:57;21.50;29.00
11454;DHT22;5783;55.174;61.310;2023-05-10T17:06:26;21.50;29.20
11454;DHT22;5783;55.174;61.310;2023-05-10T17:08:55;21.50;29.30